sensor_id;sensor_type;location;lat;lon;timestamp;P1;durP1;ratioP1;P2;durP2;ratioP2
44670;SDS011;48397;53.016;-2.260;2023-05-20T00:01:42;24.75;;;9.40;;
44670;SDS011;48397;53.016;-2.260;2023-05-20T00:04:11;27.05;;;9.70;;
44670;SDS011;48397;53.016;-2.260;2023-05-20T00:06:40;27.73;;;10.30;;
44670;SDS011;48397;53.016;-2.260;2023-05-20T00:09:09;29.63;;;9.50;;
44670;SDS011;48397;53.016;-2.260;2023-05-20T00:11:37;26.83;;;9.18;;
44670;SDS011;48397;53.016;-2.260;2023-05-20T00:14:05;25.85;;;9.40;;
44670;SDS011;48397;53.016;-2.260;2023-05-20T00:16:35;33.90;;;9.88;;
44670;SDS011;48397;53.016;-2.260;2023-05-20T00:19:03;20.08;;;7.68;;
44670;SDS011;48397;53.016;-2.260;2023-05-20T00:21:32;19.73;;;7.25;;
44670;SDS011;48397;53.016;-2.260;2023-05-20T00:24:00;18.40;;;8.23;;
44670;SDS011;48397;53.016;-2.260;2023-05-20T00:26:28;26.02;;;9.93;;
44670;SDS011;48397;53.016;-2.260;2023-05-20T00:28:58;25.55;;;11.02;;
44670;SDS011;48397;53.016;-2.260;2023-05-20T00:31:26;32.20;;;11.38;;
44670;SDS011;48397;53.016;-2.260;2023-05-20T00:33:56;31.83;;;11.35;;
44670;SDS011;48397;53.016;-2.260;2023-05-20T00:36:24;38.05;;;12.00;;
44670;SDS011;48397;53.016;-2.260;2023-05-20T00:38:56;33.97;;;11.77;;
44670;SDS011;48397;53.016;-2.260;2023-05-20T00:41:24;31.60;;;11.95;;
44670;SDS011;48397;53.016;-2.260;2023-05-20T00:43:54;30.60;;;12.18;;
44670;SDS011;48397;53.016;-2.260;2023-05-20T00:46:24;37.17;;;13.77;;
44670;SDS011;48397;53.016;-2.260;2023-05-20T00:48:55;32.25;;;13.50;;
44670;SDS011;48397;53.016;-2.260;2023-05-20T00:51:24;31.42;;;13.05;;
44670;SDS011;48397;53.016;-2.260;2023-05-20T00:53:55;32.10;;;12.23;;
44670;SDS011;48397;53.016;-2.260;2023-05-20T00:56:24;26.85;;;11.93;;
44670;SDS011;48397;53.016;-2.260;2023-05-20T00:58:52;24.50;;;9.38;;
44670;SDS011;48397;53.016;-2.260;2023-05-20T01:01:23;21.48;;;8.98;;
44670;SDS011;48397;53.016;-2.260;2023-05-20T01:03:53;22.85;;;9.60;;
44670;SDS011;48397;53.016;-2.260;2023-05-20T01:06:22;28.10;;;11.80;;
44670;SDS011;48397;53.016;-2.260;2023-05-20T01:08:49;31.65;;;12.90;;
44670;SDS011;48397;53.016;-2.260;2023-05-20T01:11:40;33.25;;;14.63;;
44670;SDS011;48397;53.016;-2.260;2023-05-20T01:14:11;29.45;;;13.77;;
44670;SDS011;48397;53.016;-2.260;2023-05-20T01:16:43;24.88;;;11.07;;
44670;SDS011;48397;53.016;-2.260;2023-05-20T01:19:21;23.50;;;9.70;;
44670;SDS011;48397;53.016;-2.260;2023-05-20T01:22:28;24.35;;;10.00;;
44670;SDS011;48397;53.016;-2.260;2023-05-20T01:27:25;20.80;;;10.48;;
44670;SDS011;48397;53.016;-2.260;2023-05-20T01:32:30;22.25;;;9.27;;
44670;SDS011;48397;53.016;-2.260;2023-05-20T01:35:00;27.35;;;9.43;;
44670;SDS011;48397;53.016;-2.260;2023-05-20T01:37:29;17.35;;;8.98;;
44670;SDS011;48397;53.016;-2.260;2023-05-20T01:39:58;24.80;;;10.40;;
44670;SDS011;48397;53.016;-2.260;2023-05-20T01:42:28;28.13;;;11.85;;
44670;SDS011;48397;53.016;-2.260;2023-05-20T01:44:57;24.33;;;10.90;;
44670;SDS011;48397;53.016;-2.260;2023-05-20T01:47:32;21.23;;;8.75;;
44670;SDS011;48397;53.016;-2.260;2023-05-20T01:50:01;20.50;;;10.45;;
44670;SDS011;48397;53.016;-2.260;2023-05-20T01:52:30;21.38;;;9.43;;
44670;SDS011;48397;53.016;-2.260;2023-05-20T01:54:58;38.83;;;9.38;;
44670;SDS011;48397;53.016;-2.260;2023-05-20T01:59:54;26.42;;;10.80;;
44670;SDS011;48397;53.016;-2.260;2023-05-20T02:02:24;23.90;;;11.65;;
44670;SDS011;48397;53.016;-2.260;2023-05-20T02:04:52;33.45;;;13.13;;
44670;SDS011;48397;53.016;-2.260;2023-05-20T02:07:23;31.25;;;13.57;;
44670;SDS011;48397;53.016;-2.260;2023-05-20T02:12:20;23.33;;;10.77;;
44670;SDS011;48397;53.016;-2.260;2023-05-20T02:14:48;24.13;;;9.65;;
44670;SDS011;48397;53.016;-2.260;2023-05-20T02:17:16;22.77;;;10.27;;
44670;SDS011;48397;53.016;-2.260;2023-05-20T02:19:44;26.17;;;11.00;;
44670;SDS011;48397;53.016;-2.260;2023-05-20T02:22:13;20.23;;;10.27;;
44670;SDS011;48397;53.016;-2.260;2023-05-20T02:24:44;24.90;;;10.68;;
44670;SDS011;48397;53.016;-2.260;2023-05-20T02:27:12;27.67;;;11.45;;
44670;SDS011;48397;53.016;-2.260;2023-05-20T02:29:41;19.08;;;9.93;;
44670;SDS011;48397;53.016;-2.260;2023-05-20T02:32:10;27.58;;;12.10;;
44670;SDS011;48397;53.016;-2.260;2023-05-20T02:34:38;21.88;;;9.48;;
44670;SDS011;48397;53.016;-2.260;2023-05-20T02:37:06;20.95;;;9.63;;
44670;SDS011;48397;53.016;-2.260;2023-05-20T02:39:36;32.60;;;13.40;;
44670;SDS011;48397;53.016;-2.260;2023-05-20T02:42:05;39.20;;;16.08;;
44670;SDS011;48397;53.016;-2.260;2023-05-20T02:44:33;60.00;;;21.45;;
44670;SDS011;48397;53.016;-2.260;2023-05-20T02:47:01;68.82;;;23.45;;
44670;SDS011;48397;53.016;-2.260;2023-05-20T02:49:29;56.92;;;21.98;;
44670;SDS011;48397;53.016;-2.260;2023-05-20T02:51:57;56.10;;;21.80;;
44670;SDS011;48397;53.016;-2.260;2023-05-20T02:54:25;67.28;;;22.48;;
44670;SDS011;48397;53.016;-2.260;2023-05-20T02:56:53;70.25;;;23.88;;
44670;SDS011;48397;53.016;-2.260;2023-05-20T02:59:22;73.28;;;24.33;;
44670;SDS011;48397;53.016;-2.260;2023-05-20T03:01:51;73.70;;;22.42;;
44670;SDS011;48397;53.016;-2.260;2023-05-20T03:04:20;60.72;;;22.10;;
44670;SDS011;48397;53.016;-2.260;2023-05-20T03:09:18;47.97;;;18.17;;
44670;SDS011;48397;53.016;-2.260;2023-05-20T03:11:47;45.40;;;18.73;;
44670;SDS011;48397;53.016;-2.260;2023-05-20T03:14:15;54.97;;;20.95;;
44670;SDS011;48397;53.016;-2.260;2023-05-20T03:16:43;53.75;;;19.90;;
44670;SDS011;48397;53.016;-2.260;2023-05-20T03:24:09;32.75;;;14.30;;
44670;SDS011;48397;53.016;-2.260;2023-05-20T03:26:38;39.35;;;14.40;;
44670;SDS011;48397;53.016;-2.260;2023-05-20T03:29:10;33.17;;;14.48;;
44670;SDS011;48397;53.016;-2.260;2023-05-20T03:31:42;32.55;;;14.57;;
44670;SDS011;48397;53.016;-2.260;2023-05-20T03:34:10;35.97;;;14.45;;
44670;SDS011;48397;53.016;-2.260;2023-05-20T03:36:38;44.28;;;16.75;;
44670;SDS011;48397;53.016;-2.260;2023-05-20T03:39:06;39.95;;;16.45;;
44670;SDS011;48397;53.016;-2.260;2023-05-20T03:44:03;40.60;;;17.63;;
44670;SDS011;48397;53.016;-2.260;2023-05-20T03:46:31;49.03;;;20.27;;
44670;SDS011;48397;53.016;-2.260;2023-05-20T03:49:00;39.20;;;15.55;;
44670;SDS011;48397;53.016;-2.260;2023-05-20T03:51:29;38.72;;;16.42;;
44670;SDS011;48397;53.016;-2.260;2023-05-20T03:54:03;34.92;;;13.57;;
44670;SDS011;48397;53.016;-2.260;2023-05-20T03:56:31;38.88;;;14.60;;
44670;SDS011;48397;53.016;-2.260;2023-05-20T03:59:01;35.28;;;15.50;;
44670;SDS011;48397;53.016;-2.260;2023-05-20T04:01:29;33.15;;;14.85;;
44670;SDS011;48397;53.016;-2.260;2023-05-20T04:03:58;30.17;;;14.10;;
44670;SDS011;48397;53.016;-2.260;2023-05-20T04:06:27;31.02;;;13.73;;
44670;SDS011;48397;53.016;-2.260;2023-05-20T04:08:59;37.08;;;16.65;;
44670;SDS011;48397;53.016;-2.260;2023-05-20T04:11:31;60.97;;;21.02;;
44670;SDS011;48397;53.016;-2.260;2023-05-20T04:14:00;56.70;;;22.35;;
44670;SDS011;48397;53.016;-2.260;2023-05-20T04:16:29;67.38;;;21.77;;
44670;SDS011;48397;53.016;-2.260;2023-05-20T04:18:58;74.53;;;24.25;;
44670;SDS011;48397;53.016;-2.260;2023-05-20T04:21:28;71.97;;;22.90;;
44670;SDS011;48397;53.016;-2.260;2023-05-20T04:23:56;71.47;;;24.63;;
44670;SDS011;48397;53.016;-2.260;2023-05-20T04:26:25;57.30;;;20.45;;
44670;SDS011;48397;53.016;-2.260;2023-05-20T04:31:27;47.50;;;19.25;;
44670;SDS011;48397;53.016;-2.260;2023-05-20T04:33:56;51.67;;;20.45;;
44670;SDS011;48397;53.016;-2.260;2023-05-20T04:36:25;56.55;;;21.65;;
44670;SDS011;48397;53.016;-2.260;2023-05-20T04:38:57;45.00;;;18.67;;
44670;SDS011;48397;53.016;-2.260;2023-05-20T04:41:25;37.80;;;15.15;;
44670;SDS011;48397;53.016;-2.260;2023-05-20T04:43:54;31.48;;;14.55;;
44670;SDS011;48397;53.016;-2.260;2023-05-20T04:46:26;36.30;;;15.48;;
44670;SDS011;48397;53.016;-2.260;2023-05-20T04:48:54;32.58;;;14.35;;
44670;SDS011;48397;53.016;-2.260;2023-05-20T04:51:23;23.92;;;11.35;;
44670;SDS011;48397;53.016;-2.260;2023-05-20T04:53:52;30.95;;;14.73;;
44670;SDS011;48397;53.016;-2.260;2023-05-20T04:56:20;39.50;;;17.23;;
44670;SDS011;48397;53.016;-2.260;2023-05-20T04:58:48;41.30;;;17.55;;
44670;SDS011;48397;53.016;-2.260;2023-05-20T05:01:18;49.80;;;19.00;;
44670;SDS011;48397;53.016;-2.260;2023-05-20T05:03:47;36.58;;;15.68;;
44670;SDS011;48397;53.016;-2.260;2023-05-20T05:06:16;45.22;;;18.58;;
44670;SDS011;48397;53.016;-2.260;2023-05-20T05:08:44;53.17;;;21.20;;
44670;SDS011;48397;53.016;-2.260;2023-05-20T05:11:13;59.35;;;23.05;;
44670;SDS011;48397;53.016;-2.260;2023-05-20T05:13:41;59.75;;;21.17;;
44670;SDS011;48397;53.016;-2.260;2023-05-20T05:16:10;54.80;;;20.80;;
44670;SDS011;48397;53.016;-2.260;2023-05-20T05:18:39;51.55;;;20.35;;
44670;SDS011;48397;53.016;-2.260;2023-05-20T05:21:10;48.08;;;18.02;;
44670;SDS011;48397;53.016;-2.260;2023-05-20T05:23:41;48.17;;;17.05;;
44670;SDS011;48397;53.016;-2.260;2023-05-20T05:26:11;45.45;;;16.63;;
44670;SDS011;48397;53.016;-2.260;2023-05-20T05:28:42;48.05;;;16.20;;
44670;SDS011;48397;53.016;-2.260;2023-05-20T05:31:11;37.13;;;14.45;;
44670;SDS011;48397;53.016;-2.260;2023-05-20T05:33:39;35.53;;;14.20;;
44670;SDS011;48397;53.016;-2.260;2023-05-20T05:36:08;29.33;;;12.25;;
44670;SDS011;48397;53.016;-2.260;2023-05-20T05:41:04;26.92;;;11.80;;
44670;SDS011;48397;53.016;-2.260;2023-05-20T05:43:33;29.65;;;12.15;;
44670;SDS011;48397;53.016;-2.260;2023-05-20T05:46:04;30.30;;;11.75;;
44670;SDS011;48397;53.016;-2.260;2023-05-20T05:48:32;32.30;;;12.18;;
44670;SDS011;48397;53.016;-2.260;2023-05-20T05:51:01;31.30;;;11.48;;
44670;SDS011;48397;53.016;-2.260;2023-05-20T05:53:31;31.50;;;12.15;;
44670;SDS011;48397;53.016;-2.260;2023-05-20T05:56:01;29.15;;;11.80;;
44670;SDS011;48397;53.016;-2.260;2023-05-20T06:01:02;27.00;;;11.10;;
44670;SDS011;48397;53.016;-2.260;2023-05-20T06:03:31;28.33;;;10.43;;
44670;SDS011;48397;53.016;-2.260;2023-05-20T06:06:00;25.63;;;10.45;;
44670;SDS011;48397;53.016;-2.260;2023-05-20T06:08:28;27.48;;;11.40;;
44670;SDS011;48397;53.016;-2.260;2023-05-20T06:10:59;26.33;;;10.88;;
44670;SDS011;48397;53.016;-2.260;2023-05-20T06:13:30;30.52;;;10.65;;
44670;SDS011;48397;53.016;-2.260;2023-05-20T06:15:59;27.25;;;11.13;;
44670;SDS011;48397;53.016;-2.260;2023-05-20T06:18:36;28.75;;;11.65;;
44670;SDS011;48397;53.016;-2.260;2023-05-20T06:21:05;29.02;;;11.75;;
44670;SDS011;48397;53.016;-2.260;2023-05-20T06:23:34;25.90;;;11.77;;
44670;SDS011;48397;53.016;-2.260;2023-05-20T06:26:05;25.95;;;10.38;;
44670;SDS011;48397;53.016;-2.260;2023-05-20T06:28:33;28.42;;;10.88;;
44670;SDS011;48397;53.016;-2.260;2023-05-20T06:31:01;17.02;;;7.07;;
44670;SDS011;48397;53.016;-2.260;2023-05-20T06:33:32;21.38;;;9.30;;
44670;SDS011;48397;53.016;-2.260;2023-05-20T06:36:05;21.58;;;7.53;;
44670;SDS011;48397;53.016;-2.260;2023-05-20T06:38:36;19.02;;;8.73;;
44670;SDS011;48397;53.016;-2.260;2023-05-20T06:41:05;21.48;;;8.00;;
44670;SDS011;48397;53.016;-2.260;2023-05-20T06:43:33;18.20;;;8.52;;
44670;SDS011;48397;53.016;-2.260;2023-05-20T06:46:09;20.15;;;9.23;;
44670;SDS011;48397;53.016;-2.260;2023-05-20T06:48:57;19.33;;;8.25;;
44670;SDS011;48397;53.016;-2.260;2023-05-20T06:51:26;21.10;;;7.70;;
44670;SDS011;48397;53.016;-2.260;2023-05-20T06:53:54;16.52;;;7.20;;
44670;SDS011;48397;53.016;-2.260;2023-05-20T06:58:50;14.27;;;6.40;;
44670;SDS011;48397;53.016;-2.260;2023-05-20T07:01:18;17.38;;;7.85;;
44670;SDS011;48397;53.016;-2.260;2023-05-20T07:03:46;15.02;;;7.00;;
44670;SDS011;48397;53.016;-2.260;2023-05-20T07:06:18;25.48;;;8.52;;
44670;SDS011;48397;53.016;-2.260;2023-05-20T07:08:47;18.10;;;8.02;;
44670;SDS011;48397;53.016;-2.260;2023-05-20T07:11:15;13.18;;;5.93;;
44670;SDS011;48397;53.016;-2.260;2023-05-20T07:13:44;17.55;;;7.43;;
44670;SDS011;48397;53.016;-2.260;2023-05-20T07:16:11;16.92;;;7.32;;
44670;SDS011;48397;53.016;-2.260;2023-05-20T07:18:44;16.17;;;6.70;;
44670;SDS011;48397;53.016;-2.260;2023-05-20T07:21:13;17.33;;;6.97;;
44670;SDS011;48397;53.016;-2.260;2023-05-20T07:24:10;13.13;;;5.57;;
44670;SDS011;48397;53.016;-2.260;2023-05-20T07:26:39;14.63;;;6.20;;
44670;SDS011;48397;53.016;-2.260;2023-05-20T07:31:38;15.20;;;6.57;;
44670;SDS011;48397;53.016;-2.260;2023-05-20T07:34:06;15.18;;;7.40;;
44670;SDS011;48397;53.016;-2.260;2023-05-20T07:36:34;15.75;;;6.45;;
44670;SDS011;48397;53.016;-2.260;2023-05-20T07:39:07;13.60;;;6.68;;
44670;SDS011;48397;53.016;-2.260;2023-05-20T07:41:41;14.82;;;5.63;;
44670;SDS011;48397;53.016;-2.260;2023-05-20T07:44:09;13.25;;;6.05;;
44670;SDS011;48397;53.016;-2.260;2023-05-20T07:46:41;27.33;;;7.57;;
44670;SDS011;48397;53.016;-2.260;2023-05-20T07:49:10;13.00;;;6.20;;
44670;SDS011;48397;53.016;-2.260;2023-05-20T07:51:39;15.00;;;6.60;;
44670;SDS011;48397;53.016;-2.260;2023-05-20T07:56:35;13.10;;;5.95;;
44670;SDS011;48397;53.016;-2.260;2023-05-20T07:59:05;7.18;;;3.72;;
44670;SDS011;48397;53.016;-2.260;2023-05-20T08:01:39;15.73;;;6.22;;
44670;SDS011;48397;53.016;-2.260;2023-05-20T08:04:10;9.73;;;5.00;;
44670;SDS011;48397;53.016;-2.260;2023-05-20T08:06:39;9.82;;;4.47;;
44670;SDS011;48397;53.016;-2.260;2023-05-20T08:09:11;12.13;;;4.75;;
44670;SDS011;48397;53.016;-2.260;2023-05-20T08:11:45;10.82;;;4.15;;
44670;SDS011;48397;53.016;-2.260;2023-05-20T08:14:15;15.25;;;5.00;;
44670;SDS011;48397;53.016;-2.260;2023-05-20T08:16:46;14.05;;;4.85;;
44670;SDS011;48397;53.016;-2.260;2023-05-20T08:19:15;9.20;;;4.95;;
44670;SDS011;48397;53.016;-2.260;2023-05-20T08:21:46;6.57;;;2.72;;
44670;SDS011;48397;53.016;-2.260;2023-05-20T08:24:15;9.95;;;3.90;;
44670;SDS011;48397;53.016;-2.260;2023-05-20T08:26:43;12.00;;;5.82;;
44670;SDS011;48397;53.016;-2.260;2023-05-20T08:29:13;11.05;;;4.18;;
44670;SDS011;48397;53.016;-2.260;2023-05-20T08:31:40;9.13;;;4.70;;
44670;SDS011;48397;53.016;-2.260;2023-05-20T08:36:36;11.93;;;4.90;;
44670;SDS011;48397;53.016;-2.260;2023-05-20T08:39:06;12.43;;;5.22;;
44670;SDS011;48397;53.016;-2.260;2023-05-20T08:41:33;9.10;;;4.25;;
44670;SDS011;48397;53.016;-2.260;2023-05-20T08:44:01;11.05;;;5.57;;
44670;SDS011;48397;53.016;-2.260;2023-05-20T08:46:31;10.77;;;4.70;;
44670;SDS011;48397;53.016;-2.260;2023-05-20T08:49:01;10.20;;;4.45;;
44670;SDS011;48397;53.016;-2.260;2023-05-20T08:51:30;10.15;;;4.30;;
44670;SDS011;48397;53.016;-2.260;2023-05-20T08:54:02;11.88;;;4.75;;
44670;SDS011;48397;53.016;-2.260;2023-05-20T08:56:32;12.90;;;5.00;;
44670;SDS011;48397;53.016;-2.260;2023-05-20T08:59:02;11.85;;;5.22;;
44670;SDS011;48397;53.016;-2.260;2023-05-20T09:01:31;14.85;;;5.35;;
44670;SDS011;48397;53.016;-2.260;2023-05-20T09:04:02;10.68;;;4.85;;
44670;SDS011;48397;53.016;-2.260;2023-05-20T09:09:09;13.02;;;5.22;;
44670;SDS011;48397;53.016;-2.260;2023-05-20T09:11:39;12.55;;;4.88;;
44670;SDS011;48397;53.016;-2.260;2023-05-20T09:14:10;9.82;;;4.65;;
44670;SDS011;48397;53.016;-2.260;2023-05-20T09:16:38;11.88;;;5.15;;
44670;SDS011;48397;53.016;-2.260;2023-05-20T09:19:07;13.18;;;5.22;;
44670;SDS011;48397;53.016;-2.260;2023-05-20T09:21:36;10.05;;;5.32;;
44670;SDS011;48397;53.016;-2.260;2023-05-20T09:24:05;10.40;;;4.78;;
44670;SDS011;48397;53.016;-2.260;2023-05-20T09:26:33;13.32;;;5.78;;
44670;SDS011;48397;53.016;-2.260;2023-05-20T09:29:01;11.35;;;4.50;;
44670;SDS011;48397;53.016;-2.260;2023-05-20T09:33:57;11.20;;;5.03;;
44670;SDS011;48397;53.016;-2.260;2023-05-20T09:36:27;11.00;;;5.20;;
44670;SDS011;48397;53.016;-2.260;2023-05-20T09:39:04;10.73;;;5.65;;
44670;SDS011;48397;53.016;-2.260;2023-05-20T09:41:42;11.65;;;4.43;;
44670;SDS011;48397;53.016;-2.260;2023-05-20T09:44:21;11.80;;;5.28;;
44670;SDS011;48397;53.016;-2.260;2023-05-20T09:46:50;14.00;;;5.43;;
44670;SDS011;48397;53.016;-2.260;2023-05-20T09:49:20;12.35;;;4.75;;
44670;SDS011;48397;53.016;-2.260;2023-05-20T09:51:51;11.98;;;5.63;;
44670;SDS011;48397;53.016;-2.260;2023-05-20T09:54:25;9.48;;;3.88;;
44670;SDS011;48397;53.016;-2.260;2023-05-20T09:56:55;10.15;;;4.70;;
44670;SDS011;48397;53.016;-2.260;2023-05-20T09:59:27;12.95;;;4.90;;
44670;SDS011;48397;53.016;-2.260;2023-05-20T10:01:58;11.57;;;5.10;;
44670;SDS011;48397;53.016;-2.260;2023-05-20T10:04:26;10.35;;;5.28;;
44670;SDS011;48397;53.016;-2.260;2023-05-20T10:20:45;10.55;;;5.05;;
44670;SDS011;48397;53.016;-2.260;2023-05-20T10:23:21;11.10;;;5.30;;
44670;SDS011;48397;53.016;-2.260;2023-05-20T10:25:50;9.88;;;4.00;;
44670;SDS011;48397;53.016;-2.260;2023-05-20T10:31:16;10.63;;;4.95;;
44670;SDS011;48397;53.016;-2.260;2023-05-20T10:33:47;9.23;;;5.20;;
44670;SDS011;48397;53.016;-2.260;2023-05-20T10:36:27;10.82;;;4.80;;
44670;SDS011;48397;53.016;-2.260;2023-05-20T10:38:58;10.68;;;3.88;;
44670;SDS011;48397;53.016;-2.260;2023-05-20T10:41:28;6.40;;;3.10;;
44670;SDS011;48397;53.016;-2.260;2023-05-20T10:44:04;10.20;;;3.92;;
44670;SDS011;48397;53.016;-2.260;2023-05-20T10:46:33;10.13;;;4.18;;
44670;SDS011;48397;53.016;-2.260;2023-05-20T10:49:22;10.90;;;4.43;;
44670;SDS011;48397;53.016;-2.260;2023-05-20T10:51:53;9.30;;;4.50;;
44670;SDS011;48397;53.016;-2.260;2023-05-20T10:54:22;6.70;;;3.42;;
44670;SDS011;48397;53.016;-2.260;2023-05-20T10:56:50;8.85;;;4.53;;
44670;SDS011;48397;53.016;-2.260;2023-05-20T10:59:20;8.15;;;3.53;;
44670;SDS011;48397;53.016;-2.260;2023-05-20T11:01:48;7.97;;;4.10;;
44670;SDS011;48397;53.016;-2.260;2023-05-20T11:04:17;16.88;;;4.72;;
44670;SDS011;48397;53.016;-2.260;2023-05-20T11:06:52;11.75;;;5.15;;
44670;SDS011;48397;53.016;-2.260;2023-05-20T11:09:22;7.53;;;3.78;;
44670;SDS011;48397;53.016;-2.260;2023-05-20T11:11:50;8.80;;;3.45;;
44670;SDS011;48397;53.016;-2.260;2023-05-20T11:14:20;10.98;;;4.45;;
44670;SDS011;48397;53.016;-2.260;2023-05-20T11:16:51;9.02;;;3.33;;
44670;SDS011;48397;53.016;-2.260;2023-05-20T11:19:20;7.80;;;3.97;;
44670;SDS011;48397;53.016;-2.260;2023-05-20T11:21:48;8.07;;;4.15;;
44670;SDS011;48397;53.016;-2.260;2023-05-20T11:24:22;7.88;;;4.20;;
44670;SDS011;48397;53.016;-2.260;2023-05-20T11:26:52;7.07;;;3.65;;
44670;SDS011;48397;53.016;-2.260;2023-05-20T11:29:22;9.07;;;4.25;;
44670;SDS011;48397;53.016;-2.260;2023-05-20T11:31:59;10.60;;;4.65;;
44670;SDS011;48397;53.016;-2.260;2023-05-20T11:34:34;10.77;;;4.18;;
44670;SDS011;48397;53.016;-2.260;2023-05-20T11:37:07;8.63;;;3.50;;
44670;SDS011;48397;53.016;-2.260;2023-05-20T11:39:38;7.65;;;3.92;;
44670;SDS011;48397;53.016;-2.260;2023-05-20T11:42:07;7.22;;;4.15;;
44670;SDS011;48397;53.016;-2.260;2023-05-20T11:44:34;10.40;;;3.83;;
44670;SDS011;48397;53.016;-2.260;2023-05-20T11:47:05;8.80;;;3.58;;
44670;SDS011;48397;53.016;-2.260;2023-05-20T11:49:37;8.98;;;4.78;;
44670;SDS011;48397;53.016;-2.260;2023-05-20T11:52:07;7.15;;;3.97;;
44670;SDS011;48397;53.016;-2.260;2023-05-20T11:54:37;7.03;;;3.60;;
44670;SDS011;48397;53.016;-2.260;2023-05-20T11:57:05;8.48;;;4.13;;
44670;SDS011;48397;53.016;-2.260;2023-05-20T11:59:33;8.35;;;4.20;;
44670;SDS011;48397;53.016;-2.260;2023-05-20T12:02:02;7.03;;;3.90;;
44670;SDS011;48397;53.016;-2.260;2023-05-20T12:04:32;6.82;;;3.38;;
44670;SDS011;48397;53.016;-2.260;2023-05-20T12:07:01;8.38;;;4.03;;
44670;SDS011;48397;53.016;-2.260;2023-05-20T12:09:30;9.77;;;4.45;;
44670;SDS011;48397;53.016;-2.260;2023-05-20T12:12:01;6.38;;;3.42;;
44670;SDS011;48397;53.016;-2.260;2023-05-20T12:14:33;8.40;;;4.18;;
44670;SDS011;48397;53.016;-2.260;2023-05-20T12:17:02;9.68;;;4.57;;
44670;SDS011;48397;53.016;-2.260;2023-05-20T12:19:30;8.77;;;4.88;;
44670;SDS011;48397;53.016;-2.260;2023-05-20T12:22:01;9.43;;;4.05;;
44670;SDS011;48397;53.016;-2.260;2023-05-20T12:25:01;13.80;;;5.38;;
44670;SDS011;48397;53.016;-2.260;2023-05-20T12:27:30;9.80;;;4.70;;
44670;SDS011;48397;53.016;-2.260;2023-05-20T12:30:00;9.80;;;4.82;;
44670;SDS011;48397;53.016;-2.260;2023-05-20T12:32:30;8.00;;;4.50;;
44670;SDS011;48397;53.016;-2.260;2023-05-20T12:35:07;10.65;;;4.93;;
44670;SDS011;48397;53.016;-2.260;2023-05-20T12:37:37;5.40;;;3.10;;
44670;SDS011;48397;53.016;-2.260;2023-05-20T12:40:09;12.82;;;4.80;;
44670;SDS011;48397;53.016;-2.260;2023-05-20T12:42:43;6.55;;;3.30;;
44670;SDS011;48397;53.016;-2.260;2023-05-20T12:45:12;8.30;;;3.88;;
44670;SDS011;48397;53.016;-2.260;2023-05-20T12:47:40;11.35;;;5.70;;
44670;SDS011;48397;53.016;-2.260;2023-05-20T12:50:08;11.07;;;5.80;;
44670;SDS011;48397;53.016;-2.260;2023-05-20T12:52:38;13.18;;;6.65;;
44670;SDS011;48397;53.016;-2.260;2023-05-20T12:55:08;12.40;;;6.25;;
44670;SDS011;48397;53.016;-2.260;2023-05-20T12:57:41;10.85;;;6.00;;
44670;SDS011;48397;53.016;-2.260;2023-05-20T13:00:12;10.88;;;5.30;;
44670;SDS011;48397;53.016;-2.260;2023-05-20T13:02:41;10.15;;;5.93;;
44670;SDS011;48397;53.016;-2.260;2023-05-20T13:05:10;13.18;;;5.05;;
44670;SDS011;48397;53.016;-2.260;2023-05-20T13:07:37;10.32;;;5.55;;
44670;SDS011;48397;53.016;-2.260;2023-05-20T13:10:06;9.90;;;5.80;;
44670;SDS011;48397;53.016;-2.260;2023-05-20T13:12:34;9.35;;;5.15;;
44670;SDS011;48397;53.016;-2.260;2023-05-20T13:15:03;11.82;;;6.25;;
44670;SDS011;48397;53.016;-2.260;2023-05-20T13:17:31;12.40;;;6.05;;
44670;SDS011;48397;53.016;-2.260;2023-05-20T13:20:00;8.55;;;5.43;;
44670;SDS011;48397;53.016;-2.260;2023-05-20T13:22:28;10.85;;;6.10;;
44670;SDS011;48397;53.016;-2.260;2023-05-20T13:24:56;11.77;;;5.72;;
44670;SDS011;48397;53.016;-2.260;2023-05-20T13:27:24;9.85;;;5.70;;
44670;SDS011;48397;53.016;-2.260;2023-05-20T13:29:52;11.00;;;5.68;;
44670;SDS011;48397;53.016;-2.260;2023-05-20T13:32:20;10.98;;;6.43;;
44670;SDS011;48397;53.016;-2.260;2023-05-20T13:34:49;10.20;;;5.80;;
44670;SDS011;48397;53.016;-2.260;2023-05-20T13:37:17;11.60;;;5.40;;
44670;SDS011;48397;53.016;-2.260;2023-05-20T13:39:45;8.65;;;5.13;;
44670;SDS011;48397;53.016;-2.260;2023-05-20T13:42:14;11.90;;;5.93;;
44670;SDS011;48397;53.016;-2.260;2023-05-20T13:44:42;11.15;;;5.43;;
44670;SDS011;48397;53.016;-2.260;2023-05-20T13:47:10;11.00;;;5.20;;
44670;SDS011;48397;53.016;-2.260;2023-05-20T13:49:39;7.43;;;4.28;;
44670;SDS011;48397;53.016;-2.260;2023-05-20T13:52:07;7.38;;;3.45;;
44670;SDS011;48397;53.016;-2.260;2023-05-20T13:54:35;8.70;;;5.18;;
44670;SDS011;48397;53.016;-2.260;2023-05-20T13:57:03;13.68;;;5.22;;
44670;SDS011;48397;53.016;-2.260;2023-05-20T13:59:34;8.52;;;5.10;;
44670;SDS011;48397;53.016;-2.260;2023-05-20T14:02:02;10.30;;;5.47;;
44670;SDS011;48397;53.016;-2.260;2023-05-20T14:04:30;7.60;;;4.22;;
44670;SDS011;48397;53.016;-2.260;2023-05-20T14:07:06;10.07;;;5.45;;
44670;SDS011;48397;53.016;-2.260;2023-05-20T14:09:36;8.93;;;5.40;;
44670;SDS011;48397;53.016;-2.260;2023-05-20T14:12:04;6.70;;;3.97;;
44670;SDS011;48397;53.016;-2.260;2023-05-20T14:14:33;11.77;;;6.45;;
44670;SDS011;48397;53.016;-2.260;2023-05-20T14:17:02;13.27;;;7.43;;
44670;SDS011;48397;53.016;-2.260;2023-05-20T14:19:31;10.60;;;7.18;;
44670;SDS011;48397;53.016;-2.260;2023-05-20T14:21:59;9.45;;;5.35;;
44670;SDS011;48397;53.016;-2.260;2023-05-20T14:24:28;8.95;;;5.20;;
44670;SDS011;48397;53.016;-2.260;2023-05-20T14:26:56;9.02;;;5.10;;
44670;SDS011;48397;53.016;-2.260;2023-05-20T14:29:24;10.38;;;5.82;;
44670;SDS011;48397;53.016;-2.260;2023-05-20T14:31:53;12.82;;;6.20;;
44670;SDS011;48397;53.016;-2.260;2023-05-20T14:34:27;11.65;;;6.10;;
44670;SDS011;48397;53.016;-2.260;2023-05-20T14:36:55;10.13;;;6.38;;
44670;SDS011;48397;53.016;-2.260;2023-05-20T14:39:23;8.23;;;5.97;;
44670;SDS011;48397;53.016;-2.260;2023-05-20T14:41:54;9.52;;;6.55;;
44670;SDS011;48397;53.016;-2.260;2023-05-20T14:44:22;7.82;;;5.70;;
44670;SDS011;48397;53.016;-2.260;2023-05-20T14:46:51;9.07;;;5.43;;
44670;SDS011;48397;53.016;-2.260;2023-05-20T14:49:19;12.23;;;5.80;;
44670;SDS011;48397;53.016;-2.260;2023-05-20T14:51:47;9.80;;;5.28;;
44670;SDS011;48397;53.016;-2.260;2023-05-20T14:54:15;9.63;;;5.43;;
44670;SDS011;48397;53.016;-2.260;2023-05-20T14:56:45;10.05;;;5.88;;
44670;SDS011;48397;53.016;-2.260;2023-05-20T14:59:16;9.48;;;5.38;;
44670;SDS011;48397;53.016;-2.260;2023-05-20T15:01:45;7.30;;;4.80;;
44670;SDS011;48397;53.016;-2.260;2023-05-20T15:04:13;10.07;;;5.82;;
44670;SDS011;48397;53.016;-2.260;2023-05-20T15:06:42;8.88;;;5.47;;
44670;SDS011;48397;53.016;-2.260;2023-05-20T15:09:10;9.02;;;5.70;;
44670;SDS011;48397;53.016;-2.260;2023-05-20T15:11:38;10.43;;;5.60;;
44670;SDS011;48397;53.016;-2.260;2023-05-20T15:14:10;10.55;;;5.75;;
44670;SDS011;48397;53.016;-2.260;2023-05-20T15:16:39;12.38;;;5.68;;
44670;SDS011;48397;53.016;-2.260;2023-05-20T15:19:08;8.43;;;5.10;;
44670;SDS011;48397;53.016;-2.260;2023-05-20T15:21:36;9.57;;;5.00;;
44670;SDS011;48397;53.016;-2.260;2023-05-20T15:24:04;12.70;;;5.35;;
44670;SDS011;48397;53.016;-2.260;2023-05-20T15:26:32;13.63;;;6.97;;
44670;SDS011;48397;53.016;-2.260;2023-05-20T15:29:00;7.35;;;4.95;;
44670;SDS011;48397;53.016;-2.260;2023-05-20T15:31:29;8.88;;;5.25;;
44670;SDS011;48397;53.016;-2.260;2023-05-20T15:34:00;9.50;;;5.20;;
44670;SDS011;48397;53.016;-2.260;2023-05-20T15:36:30;7.07;;;5.10;;